createdAt,value
2023-04-29T00:04:17.268Z,10.20
2023-04-29T00:09:24.863Z,10.20
2023-04-29T00:14:31.772Z,10.10
2023-04-29T00:19:39.050Z,10.10
2023-04-29T00:24:46.442Z,10.10
2023-04-29T00:29:53.614Z,10.10
2023-04-29T00:35:02.209Z,10.00
2023-04-29T00:40:10.547Z,10.00
2023-04-29T00:45:17.405Z,10.00
2023-04-29T00:50:25.058Z,10.00
2023-04-29T00:55:34.535Z,9.90
2023-04-29T01:00:41.987Z,9.90
2023-04-29T01:05:52.528Z,9.90
2023-04-29T01:11:07.579Z,10.10
2023-04-29T01:16:25.030Z,10.00
2023-04-29T01:21:32.304Z,10.00
2023-04-29T01:26:40.031Z,10.00
2023-04-29T01:31:54.206Z,10.00
2023-04-29T01:37:23.765Z,9.80
2023-04-29T01:42:38.167Z,9.70
2023-04-29T01:47:47.705Z,9.50
2023-04-29T01:52:54.986Z,9.60
2023-04-29T01:58:01.797Z,9.60
2023-04-29T02:03:08.699Z,9.70
2023-04-29T02:08:15.669Z,9.90
2023-04-29T02:13:22.577Z,9.90
2023-04-29T02:18:29.310Z,9.90
2023-04-29T02:23:37.250Z,9.80
2023-04-29T02:28:44.641Z,9.70
2023-04-29T02:33:51.660Z,9.60
2023-04-29T02:39:00.498Z,9.50
2023-04-29T02:44:07.563Z,9.50
2023-04-29T02:49:15.886Z,9.40
2023-04-29T02:54:22.952Z,9.40
2023-04-29T02:59:29.753Z,9.30
2023-04-29T03:04:36.851Z,9.20
2023-04-29T03:09:43.967Z,9.30
2023-04-29T03:14:50.820Z,9.20
2023-04-29T03:19:57.536Z,9.20
2023-04-29T03:25:05.504Z,9.20
2023-04-29T03:30:12.850Z,9.10
2023-04-29T03:35:19.529Z,9.00
2023-04-29T03:40:26.381Z,9.00
2023-04-29T03:45:33.422Z,9.00
2023-04-29T03:50:40.350Z,8.80
2023-04-29T03:55:47.367Z,8.80
2023-04-29T04:00:54.402Z,8.80
2023-04-29T04:06:01.226Z,8.80
2023-04-29T04:11:09.942Z,8.90
2023-04-29T04:16:17.221Z,8.90
2023-04-29T04:21:24.278Z,8.90
2023-04-29T04:26:31.447Z,8.90
2023-04-29T04:31:38.848Z,9.00
2023-04-29T04:36:46.045Z,9.00
2023-04-29T04:41:52.934Z,9.10
2023-04-29T04:47:01.529Z,9.30
2023-04-29T04:52:08.595Z,9.20
2023-04-29T04:57:15.302Z,9.20
2023-04-29T05:02:22.262Z,9.30
2023-04-29T05:07:29.250Z,9.40
2023-04-29T05:12:36.466Z,9.50
2023-04-29T05:17:43.766Z,9.70
2023-04-29T05:22:50.565Z,9.80
2023-04-29T05:27:57.429Z,9.80
2023-04-29T05:33:04.293Z,9.90
2023-04-29T05:38:11.213Z,10.00
2023-04-29T05:43:18.013Z,10.10
2023-04-29T05:48:25.428Z,10.30
2023-04-29T05:53:33.517Z,10.50
2023-04-29T05:58:40.591Z,10.70
2023-04-29T06:03:47.541Z,10.80
2023-04-29T06:08:54.516Z,11.10
2023-04-29T06:14:01.324Z,11.10
2023-04-29T06:19:08.128Z,11.20
2023-04-29T06:24:15.133Z,11.30
2023-04-29T06:29:21.891Z,11.30
2023-04-29T06:34:28.754Z,11.50
2023-04-29T06:39:35.613Z,11.70
2023-04-29T06:44:42.480Z,11.80
2023-04-29T06:49:49.345Z,11.70
2023-04-29T06:54:56.169Z,11.80
2023-04-29T07:00:05.574Z,11.90
2023-04-29T07:05:13.047Z,12.00
2023-04-29T07:10:20.001Z,12.10
2023-04-29T07:15:27.049Z,12.00
2023-04-29T07:20:34.549Z,12.40
2023-04-29T07:25:41.912Z,12.50
2023-04-29T07:30:48.726Z,12.90
2023-04-29T07:35:56.187Z,13.00
2023-04-29T07:41:04.844Z,13.30
2023-04-29T07:46:12.197Z,13.30
2023-04-29T07:51:19.076Z,13.40
2023-04-29T07:56:27.125Z,13.40
2023-04-29T08:01:34.740Z,13.50
2023-04-29T08:06:42.580Z,13.80
2023-04-29T08:11:49.766Z,13.80
2023-04-29T08:16:56.993Z,13.70
2023-04-29T08:22:05.047Z,13.80
2023-04-29T08:27:12.121Z,13.90
2023-04-29T08:32:19.045Z,13.90
2023-04-29T08:37:26.107Z,14.10
2023-04-29T08:42:38.283Z,13.70
2023-04-29T08:47:46.036Z,13.90
2023-04-29T08:52:53.661Z,15.20
2023-04-29T08:58:00.715Z,15.00
2023-04-29T09:03:21.647Z,16.00
2023-04-29T09:08:29.015Z,17.10
2023-04-29T09:13:35.955Z,17.40
2023-04-29T09:18:55.043Z,17.50
2023-04-29T09:24:05.174Z,18.20
2023-04-29T09:29:18.817Z,18.20
2023-04-29T09:34:39.258Z,17.80
2023-04-29T09:39:45.883Z,18.50
2023-04-29T09:44:53.381Z,19.00
2023-04-29T09:50:05.243Z,17.70
2023-04-29T09:55:14.472Z,16.80
2023-04-29T10:00:21.636Z,17.50
2023-04-29T10:05:31.321Z,18.90
2023-04-29T10:10:38.480Z,18.40
2023-04-29T10:15:51.517Z,18.20
2023-04-29T10:21:02.113Z,18.30
2023-04-29T10:26:11.187Z,19.60
2023-04-29T10:31:20.463Z,19.80
2023-04-29T10:36:32.585Z,19.50
2023-04-29T10:41:49.343Z,18.00
2023-04-29T10:47:21.820Z,17.80
2023-04-29T10:52:30.409Z,17.40
2023-04-29T10:57:38.696Z,17.30
2023-04-29T11:02:45.843Z,17.30
2023-04-29T11:07:57.349Z,17.10
2023-04-29T11:13:30.522Z,17.00
2023-04-29T11:18:40.829Z,16.80
2023-04-29T11:23:48.225Z,16.80
2023-04-29T11:28:56.107Z,18.10
2023-04-29T11:34:05.176Z,18.70
2023-04-29T11:39:12.380Z,19.70
2023-04-29T11:44:24.949Z,20.30
2023-04-29T11:49:38.307Z,19.60
2023-04-29T11:54:45.237Z,19.60
2023-04-29T11:59:51.956Z,19.60
2023-04-29T12:04:59.061Z,19.90
2023-04-29T12:10:12.493Z,19.90
2023-04-29T12:15:19.397Z,20.50
2023-04-29T12:20:28.323Z,20.20
2023-04-29T12:25:36.071Z,20.10
2023-04-29T12:30:42.900Z,20.20
2023-04-29T12:35:51.117Z,19.30
2023-04-29T12:41:00.391Z,19.30
2023-04-29T12:46:09.458Z,18.80
2023-04-29T12:51:18.381Z,18.60
2023-04-29T12:56:25.429Z,18.20
2023-04-29T13:01:32.880Z,17.90
2023-04-29T13:06:41.252Z,17.50
2023-04-29T13:11:48.009Z,17.60
2023-04-29T13:16:54.786Z,17.80
2023-04-29T13:22:01.946Z,18.10
2023-04-29T13:27:09.021Z,18.20
2023-04-29T13:32:18.498Z,18.30
2023-04-29T13:37:25.518Z,18.10
2023-04-29T13:47:57.557Z,18.00
2023-04-29T13:53:18.271Z,18.50
2023-04-29T14:03:05.238Z,18.10
2023-04-29T14:08:11.926Z,17.80
2023-04-29T14:13:18.929Z,18.00
2023-04-29T14:18:28.065Z,18.40
2023-04-29T14:23:34.955Z,19.20
2023-04-29T14:28:41.990Z,19.00
2023-04-29T14:33:50.697Z,18.70
2023-04-29T14:38:57.910Z,18.80
2023-04-29T14:44:05.131Z,18.40
2023-04-29T14:49:12.033Z,18.10
2023-04-29T14:54:19.468Z,17.60
2023-04-29T14:59:28.075Z,17.40
2023-04-29T15:04:35.543Z,17.80
2023-04-29T15:09:46.178Z,17.90
2023-04-29T15:14:53.952Z,18.00
2023-04-29T15:20:01.481Z,17.80
2023-04-29T15:25:11.157Z,17.50
2023-04-29T15:30:18.297Z,17.50
2023-04-29T15:35:25.339Z,17.30
2023-04-29T15:40:32.095Z,17.10
2023-04-29T15:45:38.945Z,17.00
2023-04-29T15:50:46.686Z,17.00
2023-04-29T15:55:53.612Z,17.00
2023-04-29T16:01:00.476Z,16.90
2023-04-29T16:06:08.404Z,16.80
2023-04-29T16:11:15.982Z,16.60
2023-04-29T16:16:23.744Z,16.50
2023-04-29T16:21:31.011Z,16.50
2023-04-29T16:26:39.117Z,16.40
2023-04-29T16:31:46.350Z,16.20
2023-04-29T16:36:54.160Z,16.20
2023-04-29T16:42:01.365Z,16.10
2023-04-29T16:47:08.186Z,15.90
2023-04-29T16:52:15.234Z,15.70
2023-04-29T16:57:22.423Z,15.70
2023-04-29T17:02:29.596Z,15.60
2023-04-29T17:07:36.499Z,15.60
2023-04-29T17:12:43.277Z,15.60
2023-04-29T17:17:51.811Z,15.50
2023-04-29T17:22:58.623Z,15.40
2023-04-29T17:28:06.592Z,15.40
2023-04-29T17:33:14.504Z,15.20
2023-04-29T17:38:21.408Z,15.00
2023-04-29T17:43:28.237Z,14.90
2023-04-29T17:48:34.909Z,15.00
2023-04-29T17:53:41.821Z,14.90
2023-04-29T17:58:48.716Z,14.90
2023-04-29T18:03:55.621Z,14.60
2023-04-29T18:09:02.516Z,14.60
2023-04-29T18:14:09.255Z,14.60
2023-04-29T18:19:16.003Z,14.30
2023-04-29T18:24:23.047Z,14.20
2023-04-29T18:29:29.826Z,14.10
2023-04-29T18:34:37.968Z,14.00
2023-04-29T18:39:45.320Z,13.70
2023-04-29T18:44:52.290Z,13.60
2023-04-29T18:49:59.084Z,13.60
2023-04-29T18:55:06.860Z,13.50
2023-04-29T19:00:16.818Z,13.40
2023-04-29T19:05:23.901Z,13.20
2023-04-29T19:10:31.858Z,13.20
2023-04-29T19:15:39.727Z,13.40
2023-04-29T19:20:47.148Z,13.40
2023-04-29T19:25:54.155Z,13.20
2023-04-29T19:31:00.922Z,13.30
2023-04-29T19:36:07.856Z,13.10
2023-04-29T19:41:15.775Z,13.20
2023-04-29T19:46:22.742Z,12.90
2023-04-29T19:51:29.692Z,12.90
2023-04-29T19:56:36.811Z,13.00
2023-04-29T20:01:43.975Z,13.00
2023-04-29T20:06:51.008Z,12.90
2023-04-29T20:11:57.760Z,13.00
2023-04-29T20:17:04.508Z,12.80
2023-04-29T20:22:11.262Z,12.70
2023-04-29T20:27:18.029Z,12.50
2023-04-29T20:32:24.840Z,12.40
2023-04-29T20:37:32.136Z,12.50
2023-04-29T20:42:38.908Z,12.30
2023-04-29T20:47:46.020Z,12.40
2023-04-29T20:52:54.079Z,12.40
2023-04-29T20:58:00.970Z,12.40
2023-04-29T21:03:08.129Z,12.50
2023-04-29T21:08:15.444Z,12.60
2023-04-29T21:13:22.437Z,12.50
2023-04-29T21:18:29.511Z,12.30
2023-04-29T21:23:36.774Z,12.30
2023-04-29T21:28:43.910Z,12.20
2023-04-29T21:33:51.106Z,12.20
2023-04-29T21:38:58.007Z,12.00
2023-04-29T21:44:06.130Z,12.00
2023-04-29T21:49:13.138Z,12.00
2023-04-29T21:54:19.963Z,12.00
2023-04-29T21:59:26.758Z,12.10
2023-04-29T22:04:33.625Z,12.00
2023-04-29T22:09:40.372Z,12.00
2023-04-29T22:14:47.270Z,11.70
2023-04-29T22:19:54.964Z,11.30
2023-04-29T22:25:02.423Z,11.50
2023-04-29T22:30:10.290Z,11.10
2023-04-29T22:35:17.117Z,11.10
2023-04-29T22:40:24.342Z,11.10
2023-04-29T22:45:32.549Z,11.00
2023-04-29T22:50:40.961Z,10.90
2023-04-29T22:56:02.929Z,10.80
2023-04-29T23:01:11.763Z,10.90
2023-04-29T23:06:18.483Z,10.70
2023-04-29T23:11:27.178Z,10.80
2023-04-29T23:16:34.288Z,10.70
2023-04-29T23:21:41.300Z,10.60
2023-04-29T23:26:49.867Z,10.90
2023-04-29T23:31:56.628Z,10.90
2023-04-29T23:37:03.807Z,10.90
2023-04-29T23:42:10.935Z,10.90
2023-04-29T23:47:18.151Z,10.80
2023-04-29T23:52:25.673Z,10.70
2023-04-29T23:57:32.644Z,10.80
